Time;durP1;ratioP1;P1;durP2;ratioP2;P2;SDS_P1;SDS_P2;PMS_P1;PMS_P2;Temp;Humidity;BMP_temperature;BMP_pressure;BME280_temperature;BME280_humidity;BME280_pressure;Samples;Min_cycle;Max_cycle;Signal;HPM_P1;HPM_P2
2022/10/03 00:00:31;;;;;;;59.87;4.17;;;;;;;;;;5048355;28;20460;-68
2022/10/03 00:03:19;;;;;;;61.33;5.33;;;;;;;;;;5053801;28;20483;-68
2022/10/03 00:06:08;;;;;;;61.37;5.50;;;;;;;;;;5053976;28;20464;-68
2022/10/03 00:08:50;;;;;;;61.43;4.87;;;;;;;;;;5048939;28;20466;-68
2022/10/03 00:11:25;;;;;;;61.30;5.00;;;;;;;;;;5054073;28;20444;-68
2022/10/03 00:13:56;;;;;;;60.10;4.80;;;;;;;;;;5053415;28;20447;-67
2022/10/03 00:16:29;;;;;;;60.40;5.47;;;;;;;;;;5053693;28;20474;-68
2022/10/03 00:18:58;;;;;;;61.80;4.70;;;;;;;;;;5050241;28;20456;-68
2022/10/03 00:21:33;;;;;;;63.47;5.37;;;;;;;;;;5053463;28;20447;-68
2022/10/03 00:24:06;;;;;;;59.47;4.50;;;;;;;;;;5053355;28;20515;-68
2022/10/03 00:26:39;;;;;;;58.97;3.80;;;;;;;;;;5053444;28;20857;-68
2022/10/03 00:29:20;;;;;;;59.87;4.13;;;;;;;;;;5053113;28;20452;-68
2022/10/03 00:31:53;;;;;;;58.50;3.60;;;;;;;;;;5053668;28;20517;-66
2022/10/03 00:34:26;;;;;;;59.10;4.50;;;;;;;;;;5053319;28;20971;-68
2022/10/03 00:36:58;;;;;;;62.00;3.60;;;;;;;;;;5052634;28;20444;-68
2022/10/03 00:39:34;;;;;;;59.00;4.37;;;;;;;;;;5052849;28;20449;-68
2022/10/03 00:42:18;;;;;;;60.90;4.17;;;;;;;;;;5052961;28;20455;-68
2022/10/03 00:44:52;;;;;;;62.77;5.80;;;;;;;;;;5022713;28;20848;-68
2022/10/03 00:47:33;;;;;;;58.50;3.77;;;;;;;;;;5052904;28;20467;-68
2022/10/03 00:50:34;;;;;;;60.30;4.07;;;;;;;;;;5050383;28;20952;-68
2022/10/03 00:53:08;;;;;;;59.80;3.80;;;;;;;;;;4991573;28;20478;-68
2022/10/03 00:55:42;;;;;;;60.30;4.77;;;;;;;;;;4991272;28;20589;-68
2022/10/03 00:58:21;;;;;;;59.27;4.20;;;;;;;;;;4990880;28;20467;-68
2022/10/03 01:00:51;;;;;;;60.53;4.50;;;;;;;;;;4990404;28;20510;-68
2022/10/03 01:03:30;;;;;;;58.57;3.50;;;;;;;;;;4991224;28;20483;-69
2022/10/03 01:06:02;;;;;;;60.50;4.87;;;;;;;;;;4991214;28;20483;-68
2022/10/03 01:08:34;;;;;;;59.53;4.53;;;;;;;;;;4991063;28;20450;-68
2022/10/03 01:11:05;;;;;;;63.20;6.00;;;;;;;;;;4990606;28;20459;-68
2022/10/03 01:13:37;;;;;;;61.07;5.43;;;;;;;;;;4991152;28;20566;-68
2022/10/03 01:16:10;;;;;;;59.50;4.23;;;;;;;;;;4990851;28;20477;-69
2022/10/03 01:18:45;;;;;;;59.60;4.17;;;;;;;;;;4990599;28;20466;-68
2022/10/03 01:21:18;;;;;;;61.17;5.73;;;;;;;;;;4990220;28;20462;-68
2022/10/03 01:24:03;;;;;;;59.07;4.33;;;;;;;;;;5006018;28;20499;-68
2022/10/03 01:26:42;;;;;;;62.43;6.50;;;;;;;;;;5032632;28;20468;-68
2022/10/03 01:32:00;;;;;;;59.57;3.60;;;;;;;;;;5032443;28;20979;-68
2022/10/03 01:34:29;;;;;;;58.93;4.30;;;;;;;;;;5031817;28;20466;-68
2022/10/03 01:37:05;;;;;;;59.53;4.43;;;;;;;;;;5032233;28;20445;-68
2022/10/03 01:39:35;;;;;;;59.70;4.90;;;;;;;;;;5031885;28;20444;-68
2022/10/03 01:42:07;;;;;;;59.47;4.00;;;;;;;;;;5032693;28;20503;-68
2022/10/03 01:44:42;;;;;;;59.73;5.33;;;;;;;;;;5031897;28;20857;-68
2022/10/03 01:47:15;;;;;;;59.40;3.80;;;;;;;;;;5045695;28;20499;-68
2022/10/03 01:49:47;;;;;;;63.90;5.97;;;;;;;;;;5050959;28;20458;-68
2022/10/03 01:52:20;;;;;;;60.83;4.53;;;;;;;;;;5052031;28;20560;-68
2022/10/03 01:54:51;;;;;;;58.33;4.07;;;;;;;;;;5050505;28;20487;-68
2022/10/03 01:57:21;;;;;;;58.80;3.80;;;;;;;;;;5051244;28;20459;-68
2022/10/03 01:59:55;;;;;;;59.47;3.63;;;;;;;;;;5051445;28;20494;-68
2022/10/03 02:02:29;;;;;;;60.50;4.97;;;;;;;;;;5051581;28;20462;-68
2022/10/03 02:05:00;;;;;;;60.30;5.67;;;;;;;;;;5051585;28;20522;-67
2022/10/03 02:07:31;;;;;;;62.20;4.70;;;;;;;;;;5051572;28;20456;-68
2022/10/03 02:10:03;;;;;;;59.20;4.20;;;;;;;;;;5051270;28;20949;-68
2022/10/03 02:12:33;;;;;;;62.30;4.97;;;;;;;;;;5051528;28;20498;-68
2022/10/03 02:15:08;;;;;;;59.77;4.27;;;;;;;;;;5051836;28;20468;-68
2022/10/03 02:17:45;;;;;;;59.40;5.00;;;;;;;;;;5051473;28;20458;-68
2022/10/03 02:20:15;;;;;;;61.30;4.83;;;;;;;;;;5050597;28;20451;-68
2022/10/03 02:22:43;;;;;;;61.00;5.87;;;;;;;;;;5051236;28;20837;-68
2022/10/03 02:25:19;;;;;;;59.80;4.43;;;;;;;;;;5051054;28;20487;-68
2022/10/03 02:27:57;;;;;;;60.97;5.47;;;;;;;;;;5049234;28;20452;-69
2022/10/03 02:30:31;;;;;;;59.60;5.07;;;;;;;;;;5051037;28;20567;-69
2022/10/03 02:33:17;;;;;;;60.13;5.47;;;;;;;;;;5051368;28;20452;-68
2022/10/03 02:35:51;;;;;;;62.10;5.87;;;;;;;;;;5051571;28;20517;-68
2022/10/03 02:38:23;;;;;;;59.70;4.73;;;;;;;;;;5051276;28;20822;-68
2022/10/03 02:41:03;;;;;;;61.00;4.40;;;;;;;;;;5050846;28;20440;-68
2022/10/03 02:43:49;;;;;;;59.47;4.30;;;;;;;;;;5050723;28;20638;-68
2022/10/03 02:46:36;;;;;;;64.13;4.67;;;;;;;;;;5051470;28;20460;-68
2022/10/03 02:49:25;;;;;;;63.40;7.07;;;;;;;;;;5051131;28;20440;-68
2022/10/03 02:52:04;;;;;;;62.53;5.70;;;;;;;;;;5051298;28;20444;-68
2022/10/03 02:54:42;;;;;;;61.30;4.40;;;;;;;;;;5050918;28;20487;-68
2022/10/03 02:57:27;;;;;;;60.83;6.40;;;;;;;;;;5050999;28;20447;-68
2022/10/03 03:00:06;;;;;;;60.27;4.53;;;;;;;;;;5038873;28;20460;-68
2022/10/03 03:02:54;;;;;;;59.30;4.90;;;;;;;;;;5054930;28;20451;-68
2022/10/03 03:05:38;;;;;;;59.30;4.40;;;;;;;;;;5054679;28;20467;-68
2022/10/03 03:08:24;;;;;;;64.87;5.80;;;;;;;;;;5055056;28;20443;-68
2022/10/03 03:11:07;;;;;;;59.83;4.20;;;;;;;;;;5054646;28;20522;-68
2022/10/03 03:13:58;;;;;;;60.50;5.80;;;;;;;;;;5055149;28;20483;-68
2022/10/03 03:16:43;;;;;;;60.37;4.47;;;;;;;;;;5054678;28;20468;-68
2022/10/03 03:19:29;;;;;;;60.20;4.00;;;;;;;;;;5054161;28;20463;-68
2022/10/03 03:22:01;;;;;;;60.43;4.50;;;;;;;;;;5054548;28;20463;-68
2022/10/03 03:24:38;;;;;;;61.00;4.50;;;;;;;;;;5054475;28;20491;-68
2022/10/03 03:27:13;;;;;;;58.87;4.07;;;;;;;;;;5054694;28;20447;-68
2022/10/03 03:29:45;;;;;;;61.10;4.30;;;;;;;;;;5054147;28;20456;-68
2022/10/03 03:32:18;;;;;;;61.70;5.40;;;;;;;;;;5052412;28;20789;-68
2022/10/03 03:34:53;;;;;;;59.97;4.63;;;;;;;;;;5054464;28;20992;-68
2022/10/03 03:37:25;;;;;;;60.60;5.10;;;;;;;;;;5054389;28;20455;-68
2022/10/03 03:40:02;;;;;;;63.07;6.00;;;;;;;;;;5053605;28;20470;-68
2022/10/03 03:42:36;;;;;;;60.83;6.00;;;;;;;;;;5054306;28;20443;-66
2022/10/03 03:45:08;;;;;;;59.77;4.57;;;;;;;;;;5054444;28;20486;-68
2022/10/03 03:47:45;;;;;;;60.20;5.03;;;;;;;;;;5054628;28;20471;-68
2022/10/03 03:50:19;;;;;;;61.20;6.30;;;;;;;;;;5053967;28;20470;-68
2022/10/03 03:52:55;;;;;;;59.17;3.93;;;;;;;;;;5053828;28;20951;-68
2022/10/03 03:55:31;;;;;;;61.27;5.37;;;;;;;;;;5054241;28;20475;-68
2022/10/03 03:58:07;;;;;;;62.20;6.70;;;;;;;;;;5054059;28;20454;-68
2022/10/03 04:00:42;;;;;;;62.37;7.23;;;;;;;;;;5053944;28;20447;-68
2022/10/03 04:03:18;;;;;;;61.17;4.73;;;;;;;;;;5050470;28;20451;-68
2022/10/03 04:05:50;;;;;;;60.97;4.23;;;;;;;;;;5053966;28;20815;-68
2022/10/03 04:08:26;;;;;;;60.07;5.03;;;;;;;;;;5053892;28;20444;-68
2022/10/03 04:10:59;;;;;;;60.47;4.20;;;;;;;;;;5053837;28;20448;-68
2022/10/03 04:13:41;;;;;;;59.53;3.93;;;;;;;;;;5053071;28;20448;-68
2022/10/03 04:19:14;;;;;;;59.67;4.50;;;;;;;;;;5052916;28;20436;-68
2022/10/03 04:21:59;;;;;;;61.20;5.70;;;;;;;;;;5033503;28;20449;-68
2022/10/03 04:24:44;;;;;;;60.87;4.77;;;;;;;;;;5033225;28;20504;-68
2022/10/03 04:27:21;;;;;;;59.37;4.47;;;;;;;;;;5026359;28;20453;-68
2022/10/03 04:29:52;;;;;;;60.77;5.70;;;;;;;;;;5033383;28;20449;-68
2022/10/03 04:32:31;;;;;;;61.83;5.80;;;;;;;;;;5033982;28;20449;-68
2022/10/03 04:35:07;;;;;;;59.37;3.90;;;;;;;;;;5039545;28;21014;-68
2022/10/03 04:37:41;;;;;;;59.53;4.30;;;;;;;;;;5052923;28;20448;-68
2022/10/03 04:40:16;;;;;;;59.23;4.33;;;;;;;;;;5052864;28;20456;-69
2022/10/03 04:42:50;;;;;;;62.87;5.40;;;;;;;;;;5053040;28;20447;-68
2022/10/03 04:45:28;;;;;;;61.47;4.70;;;;;;;;;;5053299;28;20479;-68
2022/10/03 04:48:00;;;;;;;60.30;5.23;;;;;;;;;;5053204;28;20503;-69
2022/10/03 04:50:33;;;;;;;59.70;4.30;;;;;;;;;;5052562;28;20455;-68
2022/10/03 04:53:11;;;;;;;60.13;4.47;;;;;;;;;;5053050;28;20877;-68
2022/10/03 04:55:42;;;;;;;60.67;4.33;;;;;;;;;;5053053;28;20468;-68
2022/10/03 04:58:16;;;;;;;61.83;5.30;;;;;;;;;;5053106;28;20455;-68
2022/10/03 05:00:50;;;;;;;59.10;4.10;;;;;;;;;;5052252;28;20954;-67
2022/10/03 05:03:21;;;;;;;59.97;4.43;;;;;;;;;;5052475;28;20791;-67
2022/10/03 05:05:54;;;;;;;63.17;5.67;;;;;;;;;;5050267;28;20510;-67
2022/10/03 05:08:34;;;;;;;59.37;4.57;;;;;;;;;;5052996;28;20846;-68
2022/10/03 05:11:11;;;;;;;58.87;3.93;;;;;;;;;;5052658;28;20452;-68
2022/10/03 05:13:50;;;;;;;59.37;4.90;;;;;;;;;;5052402;28;20448;-68
2022/10/03 05:16:20;;;;;;;62.00;4.27;;;;;;;;;;5052747;28;20478;-68
2022/10/03 05:18:51;;;;;;;61.60;4.33;;;;;;;;;;5052326;28;20453;-67
2022/10/03 05:21:25;;;;;;;63.00;5.37;;;;;;;;;;5052600;28;20448;-67
2022/10/03 05:24:01;;;;;;;59.27;4.07;;;;;;;;;;5050842;28;20480;-68
2022/10/03 05:26:35;;;;;;;62.67;5.50;;;;;;;;;;5052156;28;20475;-67
2022/10/03 05:29:10;;;;;;;62.43;4.60;;;;;;;;;;5052337;28;20456;-67
2022/10/03 05:31:45;;;;;;;58.83;3.70;;;;;;;;;;5052402;28;20456;-67
2022/10/03 05:34:17;;;;;;;61.30;5.53;;;;;;;;;;5051899;28;20459;-67
2022/10/03 05:36:55;;;;;;;60.20;5.37;;;;;;;;;;5052048;28;20452;-68
2022/10/03 05:39:27;;;;;;;59.67;5.00;;;;;;;;;;5050398;28;20451;-68
2022/10/03 05:41:55;;;;;;;60.63;4.63;;;;;;;;;;5052318;28;20449;-68
2022/10/03 05:44:31;;;;;;;61.00;4.80;;;;;;;;;;5051775;28;20488;-67
2022/10/03 05:46:59;;;;;;;59.07;4.60;;;;;;;;;;5051415;28;20477;-68
2022/10/03 05:49:32;;;;;;;62.80;4.87;;;;;;;;;;5051790;28;20456;-67
2022/10/03 05:52:11;;;;;;;60.97;4.90;;;;;;;;;;5052008;28;20986;-67
2022/10/03 05:55:05;;;;;;;63.13;5.97;;;;;;;;;;5051847;28;20468;-68
2022/10/03 05:57:39;;;;;;;61.77;5.47;;;;;;;;;;5015401;28;20813;-68
2022/10/03 06:00:11;;;;;;;60.20;4.40;;;;;;;;;;5050755;28;20455;-67
2022/10/03 06:02:51;;;;;;;59.80;4.57;;;;;;;;;;5051286;28;20519;-67
2022/10/03 06:05:32;;;;;;;61.60;5.77;;;;;;;;;;5050889;28;20494;-68
2022/10/03 06:08:18;;;;;;;60.00;5.60;;;;;;;;;;5050712;28;20537;-68
2022/10/03 06:10:49;;;;;;;61.90;5.93;;;;;;;;;;5049222;28;20510;-68
2022/10/03 06:13:21;;;;;;;61.17;5.83;;;;;;;;;;5051501;28;20456;-67
2022/10/03 06:15:53;;;;;;;62.23;4.47;;;;;;;;;;5051655;28;20467;-67
2022/10/03 06:18:33;;;;;;;60.50;4.57;;;;;;;;;;5051664;28;20479;-67
2022/10/03 06:21:19;;;;;;;61.30;6.67;;;;;;;;;;5052055;28;20824;-67
2022/10/03 06:24:05;;;;;;;61.67;4.90;;;;;;;;;;5051566;28;21118;-67
2022/10/03 06:26:37;;;;;;;61.07;5.67;;;;;;;;;;5050937;28;20837;-67
2022/10/03 06:29:28;;;;;;;59.53;4.80;;;;;;;;;;5050696;28;20440;-67
2022/10/03 06:32:08;;;;;;;60.80;4.90;;;;;;;;;;5036004;28;20468;-68
2022/10/03 06:34:54;;;;;;;60.80;4.90;;;;;;;;;;5050320;28;20562;-67
2022/10/03 06:37:33;;;;;;;61.40;5.80;;;;;;;;;;5051294;28;20455;-68
2022/10/03 06:40:19;;;;;;;61.00;4.87;;;;;;;;;;5050995;28;20458;-67
2022/10/03 06:43:06;;;;;;;63.07;6.97;;;;;;;;;;5051053;28;20456;-67
2022/10/03 06:45:51;;;;;;;61.37;5.80;;;;;;;;;;5050807;28;20495;-67
2022/10/03 06:48:40;;;;;;;61.10;5.97;;;;;;;;;;5051490;28;20474;-68
2022/10/03 06:51:21;;;;;;;60.90;5.13;;;;;;;;;;5051844;28;20444;-67
2022/10/03 06:54:01;;;;;;;62.17;6.00;;;;;;;;;;5051416;28;20458;-67
2022/10/03 06:56:39;;;;;;;60.80;4.93;;;;;;;;;;5050821;28;20465;-67
2022/10/03 06:59:19;;;;;;;62.90;4.87;;;;;;;;;;5050743;28;20452;-68
2022/10/03 07:01:58;;;;;;;62.57;6.50;;;;;;;;;;5050972;28;20477;-67
2022/10/03 07:04:54;;;;;;;61.30;5.33;;;;;;;;;;5050619;28;20484;-68
2022/10/03 07:07:42;;;;;;;60.50;4.90;;;;;;;;;;5050341;28;20444;-67
2022/10/03 07:10:24;;;;;;;61.20;5.07;;;;;;;;;;5050541;28;20546;-67
2022/10/03 07:13:11;;;;;;;66.87;6.00;;;;;;;;;;5048679;28;21031;-68
2022/10/03 07:15:52;;;;;;;62.47;6.77;;;;;;;;;;5051023;28;20550;-67
2022/10/03 07:18:34;;;;;;;61.70;6.23;;;;;;;;;;5051070;28;20440;-67
2022/10/03 07:21:34;;;;;;;61.10;6.30;;;;;;;;;;5048882;28;20467;-67
2022/10/03 07:24:14;;;;;;;59.83;4.00;;;;;;;;;;4989334;28;20796;-68
2022/10/03 07:26:53;;;;;;;61.07;6.23;;;;;;;;;;4989069;28;20486;-68
2022/10/03 07:29:49;;;;;;;59.30;4.17;;;;;;;;;;4988573;28;20450;-67
2022/10/03 07:32:24;;;;;;;78.17;7.63;;;;;;;;;;4989049;28;20483;-67
2022/10/03 07:35:06;;;;;;;61.40;5.47;;;;;;;;;;4988514;28;20475;-67
2022/10/03 07:41:02;;;;;;;62.47;6.30;;;;;;;;;;4961424;28;20553;-67
2022/10/03 07:43:45;;;;;;;62.07;6.03;;;;;;;;;;4965606;28;20555;-68
2022/10/03 07:46:36;;;;;;;61.00;5.23;;;;;;;;;;4988992;28;20483;-68
2022/10/03 07:49:11;;;;;;;59.70;4.43;;;;;;;;;;4992591;28;20456;-67
2022/10/03 07:51:43;;;;;;;61.77;6.43;;;;;;;;;;4992322;28;20467;-68
2022/10/03 07:54:37;;;;;;;61.00;4.37;;;;;;;;;;5001525;28;20507;-67
2022/10/03 07:57:12;;;;;;;61.47;6.67;;;;;;;;;;4998130;28;20443;-67
2022/10/03 07:59:59;;;;;;;62.57;5.13;;;;;;;;;;5037681;28;20463;-68
2022/10/03 08:02:34;;;;;;;61.77;6.53;;;;;;;;;;5053820;28;20452;-67
2022/10/03 08:05:17;;;;;;;63.73;5.70;;;;;;;;;;5053956;28;20499;-67
2022/10/03 08:07:53;;;;;;;64.17;5.90;;;;;;;;;;5053533;28;20514;-68
2022/10/03 08:10:43;;;;;;;61.10;5.50;;;;;;;;;;5053489;28;20457;-67
2022/10/03 08:13:25;;;;;;;63.57;5.73;;;;;;;;;;5053562;28;20457;-68
2022/10/03 08:16:02;;;;;;;65.00;6.43;;;;;;;;;;5053790;28;20845;-68
2022/10/03 08:18:42;;;;;;;63.90;6.23;;;;;;;;;;5053969;28;20452;-68
2022/10/03 08:21:11;;;;;;;62.90;5.30;;;;;;;;;;5053983;28;20822;-68
2022/10/03 08:23:57;;;;;;;62.83;6.13;;;;;;;;;;5054105;28;20448;-68
2022/10/03 08:26:31;;;;;;;61.20;6.00;;;;;;;;;;5053608;28;20661;-68
2022/10/03 08:29:16;;;;;;;61.37;5.60;;;;;;;;;;5052868;28;20453;-68
2022/10/03 08:31:54;;;;;;;63.07;5.20;;;;;;;;;;5052963;28;20454;-68
2022/10/03 08:34:32;;;;;;;62.57;4.60;;;;;;;;;;5052986;28;20992;-68
2022/10/03 08:37:12;;;;;;;63.40;4.47;;;;;;;;;;5052923;28;20490;-68
2022/10/03 08:39:48;;;;;;;65.57;5.50;;;;;;;;;;5052768;28;20468;-68
2022/10/03 08:42:26;;;;;;;61.40;4.90;;;;;;;;;;5053079;28;20453;-68
2022/10/03 08:45:27;;;;;;;60.90;4.53;;;;;;;;;;5052261;28;20957;-68
2022/10/03 08:48:24;;;;;;;60.57;5.70;;;;;;;;;;4991844;28;20449;-68
2022/10/03 08:50:58;;;;;;;66.20;6.83;;;;;;;;;;4991436;28;20465;-68
2022/10/03 08:53:52;;;;;;;64.03;6.67;;;;;;;;;;4991834;28;20475;-68
2022/10/03 08:56:22;;;;;;;63.20;5.50;;;;;;;;;;4991332;28;20463;-69
2022/10/03 08:59:23;;;;;;;66.77;7.50;;;;;;;;;;4990447;28;20448;-69
2022/10/03 09:02:14;;;;;;;63.77;7.33;;;;;;;;;;4990822;28;20448;-69
2022/10/03 09:05:05;;;;;;;62.10;6.00;;;;;;;;;;4990861;28;20526;-68
2022/10/03 09:07:43;;;;;;;62.00;5.13;;;;;;;;;;4990653;28;20497;-69
2022/10/03 09:10:40;;;;;;;62.93;5.27;;;;;;;;;;4990523;28;20792;-68
2022/10/03 09:13:22;;;;;;;60.90;5.40;;;;;;;;;;4990826;28;20453;-68
2022/10/03 09:16:03;;;;;;;60.10;4.80;;;;;;;;;;4989945;28;20548;-68
2022/10/03 09:18:43;;;;;;;63.07;4.40;;;;;;;;;;5013306;28;20932;-69
2022/10/03 09:21:31;;;;;;;62.37;6.20;;;;;;;;;;5052876;28;20451;-68
2022/10/03 09:24:25;;;;;;;61.63;5.73;;;;;;;;;;5052743;28;20951;-69
2022/10/03 09:27:11;;;;;;;64.93;6.57;;;;;;;;;;5052025;28;20513;-69
2022/10/03 09:30:05;;;;;;;61.47;4.93;;;;;;;;;;5051731;28;20459;-69
2022/10/03 09:32:59;;;;;;;62.47;5.20;;;;;;;;;;5052123;28;20465;-69
2022/10/03 09:35:47;;;;;;;59.67;5.00;;;;;;;;;;5051719;28;20532;-69
2022/10/03 09:38:37;;;;;;;60.57;4.70;;;;;;;;;;5025816;28;20460;-69
2022/10/03 09:41:19;;;;;;;62.40;5.87;;;;;;;;;;5032208;28;20463;-69
2022/10/03 09:44:11;;;;;;;63.93;5.50;;;;;;;;;;5039353;28;20463;-69
2022/10/03 09:46:45;;;;;;;61.87;5.20;;;;;;;;;;4995493;28;20518;-69
2022/10/03 09:49:27;;;;;;;66.17;5.80;;;;;;;;;;5051942;28;20626;-68
2022/10/03 09:52:00;;;;;;;61.50;5.00;;;;;;;;;;5052365;28;20459;-69
2022/10/03 09:54:37;;;;;;;65.00;5.37;;;;;;;;;;5052229;28;20455;-69
2022/10/03 09:57:11;;;;;;;59.97;4.30;;;;;;;;;;5051691;28;20943;-69
2022/10/03 09:59:54;;;;;;;59.37;3.90;;;;;;;;;;5051099;28;20450;-69
2022/10/03 10:02:44;;;;;;;60.40;4.03;;;;;;;;;;5051406;28;20452;-69
2022/10/03 10:05:24;;;;;;;58.20;3.40;;;;;;;;;;5051437;28;20491;-69
2022/10/03 10:08:18;;;;;;;60.90;4.20;;;;;;;;;;5051445;28;20455;-69
2022/10/03 10:10:57;;;;;;;61.40;3.80;;;;;;;;;;5050682;28;20450;-69
2022/10/03 10:13:34;;;;;;;59.23;3.57;;;;;;;;;;5051393;28;20452;-69
2022/10/03 10:16:13;;;;;;;63.43;4.07;;;;;;;;;;5050557;28;20473;-69
2022/10/03 10:18:59;;;;;;;59.47;3.43;;;;;;;;;;5051567;28;20448;-69
2022/10/03 10:21:39;;;;;;;63.30;4.17;;;;;;;;;;5051794;28;20444;-69
2022/10/03 10:24:18;;;;;;;62.60;6.10;;;;;;;;;;5051745;28;20452;-69
2022/10/03 10:27:06;;;;;;;61.80;4.40;;;;;;;;;;5051652;28;20484;-69
2022/10/03 10:30:03;;;;;;;58.77;3.60;;;;;;;;;;5050696;28;20452;-69
2022/10/03 10:32:47;;;;;;;59.87;3.43;;;;;;;;;;4989510;28;20451;-69
2022/10/03 10:35:28;;;;;;;61.77;3.83;;;;;;;;;;5044164;28;20860;-69
2022/10/03 10:38:10;;;;;;;58.33;3.53;;;;;;;;;;5051121;28;20459;-69
2022/10/03 10:41:02;;;;;;;63.43;3.90;;;;;;;;;;5017901;28;20466;-70
2022/10/03 10:43:48;;;;;;;58.53;3.20;;;;;;;;;;5051180;28;20474;-69
2022/10/03 10:46:43;;;;;;;58.67;3.70;;;;;;;;;;5051060;28;20514;-68
2022/10/03 10:49:39;;;;;;;59.47;4.00;;;;;;;;;;5015722;28;20456;-69
2022/10/03 10:52:21;;;;;;;60.10;4.57;;;;;;;;;;5051552;28;20450;-69
2022/10/03 10:55:03;;;;;;;59.60;3.67;;;;;;;;;;5018529;28;20985;-69
2022/10/03 10:57:45;;;;;;;60.00;4.17;;;;;;;;;;5050948;28;20542;-69
2022/10/03 11:00:25;;;;;;;59.40;4.30;;;;;;;;;;5050659;28;20452;-69
2022/10/03 11:03:10;;;;;;;58.60;3.43;;;;;;;;;;5050836;28;20490;-69
2022/10/03 11:05:47;;;;;;;61.03;4.13;;;;;;;;;;5050718;28;20484;-69
2022/10/03 11:08:33;;;;;;;60.57;3.70;;;;;;;;;;5050798;28;20455;-69
2022/10/03 11:11:13;;;;;;;62.80;4.07;;;;;;;;;;5050945;28;20448;-69
2022/10/03 11:13:59;;;;;;;58.50;3.63;;;;;;;;;;5050904;28;20452;-69
2022/10/03 11:16:42;;;;;;;63.67;4.50;;;;;;;;;;5049921;28;20471;-69
2022/10/03 11:19:38;;;;;;;60.67;3.77;;;;;;;;;;5050759;28;20961;-69
2022/10/03 11:22:25;;;;;;;58.97;3.57;;;;;;;;;;5052531;28;20453;-69
2022/10/03 11:25:11;;;;;;;59.70;4.23;;;;;;;;;;5055137;28;21014;-69
2022/10/03 11:28:01;;;;;;;60.70;4.00;;;;;;;;;;5054450;28;20443;-69
2022/10/03 11:30:49;;;;;;;58.97;4.60;;;;;;;;;;5054217;28;20444;-68
2022/10/03 11:33:42;;;;;;;61.80;3.10;;;;;;;;;;5054316;28;20532;-69
2022/10/03 11:36:23;;;;;;;59.10;3.60;;;;;;;;;;5054366;28;20460;-69
2022/10/03 11:38:56;;;;;;;60.13;4.00;;;;;;;;;;5054073;28;20447;-69
2022/10/03 11:41:30;;;;;;;58.63;3.27;;;;;;;;;;5054028;28;20444;-69
2022/10/03 11:44:08;;;;;;;60.60;3.77;;;;;;;;;;5054643;28;20630;-69
2022/10/03 11:46:46;;;;;;;61.23;4.17;;;;;;;;;;5053397;28;20484;-69
2022/10/03 11:49:22;;;;;;;58.57;3.30;;;;;;;;;;5054461;28;20749;-69
2022/10/03 11:51:55;;;;;;;58.30;2.80;;;;;;;;;;5054347;28;20452;-69
2022/10/03 11:54:26;;;;;;;61.13;3.40;;;;;;;;;;5054787;28;20848;-69
2022/10/03 11:56:58;;;;;;;58.17;2.80;;;;;;;;;;5054548;28;20506;-69
2022/10/03 11:59:32;;;;;;;58.03;3.03;;;;;;;;;;5053449;28;20460;-69
2022/10/03 12:02:09;;;;;;;60.10;3.40;;;;;;;;;;5053668;28;20447;-68
2022/10/03 12:04:45;;;;;;;59.10;3.20;;;;;;;;;;5053852;28;20472;-69
2022/10/03 12:10:06;;;;;;;57.87;2.10;;;;;;;;;;5053468;28;20814;-70
2022/10/03 12:12:37;;;;;;;59.10;2.33;;;;;;;;;;5053643;28;20452;-69
2022/10/03 12:15:15;;;;;;;57.67;2.20;;;;;;;;;;5053796;28;20471;-69
2022/10/03 12:17:47;;;;;;;57.70;2.10;;;;;;;;;;5053144;28;20458;-69
2022/10/03 12:20:19;;;;;;;58.73;2.37;;;;;;;;;;5053838;28;20466;-69
2022/10/03 12:22:50;;;;;;;60.87;3.43;;;;;;;;;;5054138;28;20550;-69
2022/10/03 12:25:19;;;;;;;60.43;3.67;;;;;;;;;;5053815;28;20481;-69
2022/10/03 12:27:50;;;;;;;58.00;2.33;;;;;;;;;;5053730;28;20845;-69
2022/10/03 12:30:21;;;;;;;59.40;2.63;;;;;;;;;;5052916;28;20448;-69
2022/10/03 12:32:57;;;;;;;57.97;2.37;;;;;;;;;;5052841;28;20452;-69
2022/10/03 12:35:33;;;;;;;57.77;2.30;;;;;;;;;;5052944;28;20483;-69
2022/10/03 12:38:05;;;;;;;58.47;2.80;;;;;;;;;;5052885;28;20448;-69
2022/10/03 12:40:36;;;;;;;57.63;2.10;;;;;;;;;;5053138;28;20478;-69
2022/10/03 12:43:05;;;;;;;57.63;2.30;;;;;;;;;;5053045;28;20448;-70
2022/10/03 12:45:37;;;;;;;58.00;2.67;;;;;;;;;;5052979;28;20475;-69
2022/10/03 12:48:23;;;;;;;58.50;2.50;;;;;;;;;;5052210;28;20444;-69
2022/10/03 12:50:55;;;;;;;60.67;2.40;;;;;;;;;;5053328;28;20448;-69
2022/10/03 12:53:30;;;;;;;57.83;2.30;;;;;;;;;;5053445;28;20444;-69
2022/10/03 12:56:03;;;;;;;60.07;2.23;;;;;;;;;;5053321;28;20763;-69
2022/10/03 12:58:35;;;;;;;57.87;2.00;;;;;;;;;;5052829;28;20956;-69
2022/10/03 13:01:09;;;;;;;57.70;2.10;;;;;;;;;;5052420;28;20451;-69
2022/10/03 13:03:40;;;;;;;56.97;2.10;;;;;;;;;;5052270;28;20940;-69
2022/10/03 13:06:21;;;;;;;59.90;2.90;;;;;;;;;;5052552;28;20492;-68
2022/10/03 13:08:54;;;;;;;59.17;2.57;;;;;;;;;;5051736;28;20829;-69
2022/10/03 13:11:31;;;;;;;57.47;2.33;;;;;;;;;;5052490;28;20996;-69
2022/10/03 13:14:11;;;;;;;57.37;2.33;;;;;;;;;;5052624;28;20446;-69
2022/10/03 13:16:45;;;;;;;58.60;2.43;;;;;;;;;;5050220;28;20593;-69
2022/10/03 13:19:13;;;;;;;59.00;2.30;;;;;;;;;;5051332;28;20440;-69
2022/10/03 13:21:54;;;;;;;58.57;2.20;;;;;;;;;;5052563;28;20940;-70
2022/10/03 13:24:30;;;;;;;57.60;2.40;;;;;;;;;;5052523;28;20451;-69
2022/10/03 13:27:03;;;;;;;58.67;2.20;;;;;;;;;;5052520;28;20503;-69
2022/10/03 13:29:37;;;;;;;58.53;2.00;;;;;;;;;;5051151;28;20448;-69
2022/10/03 13:32:16;;;;;;;57.70;2.40;;;;;;;;;;5051875;28;20940;-69
2022/10/03 13:35:57;;;;;;;65.20;2.40;;;;;;;;;;5051660;28;20488;-69
2022/10/03 13:38:07;;;;;;;58.20;2.20;;;;;;;;;;5037326;28;20444;-69
2022/10/03 13:40:36;;;;;;;57.30;2.03;;;;;;;;;;5051177;28;20544;-69
2022/10/03 13:43:04;;;;;;;57.47;2.13;;;;;;;;;;5051656;28;20452;-70
2022/10/03 13:45:33;;;;;;;57.67;2.47;;;;;;;;;;5051084;28;20460;-68
2022/10/03 13:48:02;;;;;;;58.10;2.50;;;;;;;;;;5051461;28;20476;-69
2022/10/03 13:50:31;;;;;;;63.30;2.37;;;;;;;;;;5051477;28;20448;-69
2022/10/03 13:53:01;;;;;;;57.67;2.23;;;;;;;;;;5052515;28;20450;-69
2022/10/03 13:55:32;;;;;;;57.43;2.37;;;;;;;;;;5048994;28;20888;-69
2022/10/03 13:58:09;;;;;;;57.50;2.20;;;;;;;;;;5051538;28;20448;-69
2022/10/03 14:00:45;;;;;;;57.63;2.50;;;;;;;;;;5050991;28;20459;-69
2022/10/03 14:03:22;;;;;;;57.67;2.20;;;;;;;;;;5050999;28;20450;-68
2022/10/03 14:06:04;;;;;;;57.27;2.30;;;;;;;;;;5050552;28;21002;-68
2022/10/03 14:08:40;;;;;;;58.53;3.17;;;;;;;;;;5050626;28;20447;-69
2022/10/03 14:11:21;;;;;;;58.40;2.60;;;;;;;;;;5051399;28;20448;-68
2022/10/03 14:13:54;;;;;;;58.87;2.93;;;;;;;;;;5051210;28;20451;-69
2022/10/03 14:16:23;;;;;;;58.20;2.43;;;;;;;;;;5050528;28;20499;-68
2022/10/03 14:18:55;;;;;;;59.07;2.53;;;;;;;;;;5051021;28;20444;-68
2022/10/03 14:21:39;;;;;;;58.60;2.60;;;;;;;;;;5051511;28;20451;-68
2022/10/03 14:24:13;;;;;;;59.30;2.87;;;;;;;;;;5051273;28;20435;-68
2022/10/03 14:26:43;;;;;;;58.87;2.40;;;;;;;;;;5048896;28;21041;-69
2022/10/03 14:29:16;;;;;;;58.50;3.07;;;;;;;;;;5051150;28;20827;-68
2022/10/03 14:31:47;;;;;;;58.27;2.40;;;;;;;;;;5050584;28;20448;-68
2022/10/03 14:34:20;;;;;;;58.23;2.60;;;;;;;;;;5049800;28;20464;-68
2022/10/03 14:36:52;;;;;;;58.07;2.50;;;;;;;;;;5051040;28;20786;-69
2022/10/03 14:39:25;;;;;;;58.00;2.70;;;;;;;;;;5050227;28;20453;-68
2022/10/03 14:42:07;;;;;;;60.37;3.33;;;;;;;;;;5051243;28;20502;-67
2022/10/03 14:44:37;;;;;;;58.00;2.30;;;;;;;;;;5051036;28;20472;-67
2022/10/03 14:47:08;;;;;;;57.90;2.43;;;;;;;;;;5050879;28;20484;-67
2022/10/03 14:49:39;;;;;;;58.30;2.50;;;;;;;;;;5049767;28;20455;-66
2022/10/03 14:52:08;;;;;;;57.67;2.20;;;;;;;;;;5051423;28;20502;-66
2022/10/03 14:54:38;;;;;;;58.70;2.67;;;;;;;;;;5050718;28;20464;-69
2022/10/03 14:57:14;;;;;;;60.43;3.13;;;;;;;;;;5050879;28;20475;-69
2022/10/03 14:59:41;;;;;;;57.87;2.37;;;;;;;;;;5054370;28;20971;-68
2022/10/03 15:02:20;;;;;;;58.30;3.07;;;;;;;;;;5054638;28;20466;-68
2022/10/03 15:04:50;;;;;;;63.53;2.80;;;;;;;;;;5054504;28;20468;-69
2022/10/03 15:07:18;;;;;;;58.03;2.63;;;;;;;;;;5054512;28;20480;-69
2022/10/03 15:09:48;;;;;;;57.70;2.50;;;;;;;;;;5054056;28;20460;-68
2022/10/03 15:12:17;;;;;;;58.10;2.40;;;;;;;;;;5054045;28;20541;-69
2022/10/03 15:14:54;;;;;;;58.33;2.40;;;;;;;;;;5054193;28;20836;-69
2022/10/03 15:17:23;;;;;;;60.90;3.10;;;;;;;;;;5054312;28;20950;-69
2022/10/03 15:19:53;;;;;;;60.70;2.57;;;;;;;;;;5054213;28;20551;-69
2022/10/03 15:22:29;;;;;;;59.13;2.80;;;;;;;;;;5054987;28;20479;-68
2022/10/03 15:24:57;;;;;;;58.50;3.10;;;;;;;;;;5054996;28;20837;-68
2022/10/03 15:27:26;;;;;;;58.00;2.40;;;;;;;;;;5052527;28;20483;-68
2022/10/03 15:29:55;;;;;;;63.20;2.80;;;;;;;;;;5054294;28;20451;-68
2022/10/03 15:32:26;;;;;;;58.27;2.77;;;;;;;;;;5053727;28;20487;-69
2022/10/03 15:34:56;;;;;;;58.30;2.50;;;;;;;;;;5053401;28;20938;-68
2022/10/03 15:37:25;;;;;;;58.40;2.80;;;;;;;;;;5054221;28;20444;-66
2022/10/03 15:39:53;;;;;;;58.07;2.60;;;;;;;;;;5053351;28;20454;-68
2022/10/03 15:42:22;;;;;;;58.30;2.60;;;;;;;;;;5054508;28;20543;-68
2022/10/03 15:44:52;;;;;;;57.87;2.57;;;;;;;;;;5054093;28;21024;-68